Hauptseite
METAR-TAF:

METAR-TAF

Flughäfen :

Flughafen San Sebastián

San Sebastián, Spanien

Breite: 43-21N, Länge: 001-48W, Höhe: 5 m

Beobachtung

Neuester Wetterbericht von vor 23 Minuten, um 07:30 UTC
Wind 3 kt aus Süd, variierte zwischen Süd/Südost und Südwest
Temperatur 19°C
Luftfeuchtigkeit 88%
Luftdruck 1023 hPa
Sichtweite 10 km oder mehr
keine Wolken unter 1500 m und keine Kumulonimbus oder Gewitterwolken

METAR: LESO 220730Z 19003KT 160V220 CAVOK 19/17 Q1023

Zeit: 09:53 (07:53 UTC)

Prognose

Neuester Wetterbericht von vor 2 Stunden und 53 Minuten, um 05:00 UTC
Gültige Prognose vom 22 um 06 UTC bis 23 um 06 UTC
Wind 4 kt aus unterschiedlichen Richtungen
Sichtweite 10 km oder mehr
keine Wolken unter 1500 m und keine Kumulonimbus oder Gewitterwolken

TAF: LESO 220500Z 2206/2306 VRB04KT CAVOK TX26/2215Z TN17/2206Z

Wetterbeobachtungen und Prognosen von mehr als 4000 Flughäfen (METAR und TAF Bericht).

Die verfügbaren Stationen werden durch gelbe und rote Markierungen auf der Karte dargestellt.

Führen Sie die Maus auf sie, um den Namen der Station zu sehen.

Darauf klicken, um die Beobachtung von Wetterbeobachtungen und Prognosen zu sehen.

Um die Karte zu ändern : klicken Sie auf den grünen Tasten mit einem schwarzen Kreuz Zum Vergrößern, auf den grünen Button mit einem Gedankenstrich zu verkleinern, oder auf die grünen Pfeile für benachbarte Karten.


METAR-TAF: